createdAt,value
2022-08-10T00:00:51.771Z,100.00
2022-08-10T00:03:20.596Z,100.00
2022-08-10T00:05:53.678Z,100.00
2022-08-10T00:08:23.729Z,100.00
2022-08-10T00:10:53.093Z,100.00
2022-08-10T00:13:20.842Z,100.00
2022-08-10T00:15:54.190Z,100.00
2022-08-10T00:18:34.449Z,100.00
2022-08-10T00:21:04.326Z,100.00
2022-08-10T00:23:31.969Z,100.00
2022-08-10T00:25:59.506Z,100.00
2022-08-10T00:28:30.386Z,100.00
2022-08-10T00:30:58.083Z,100.00
2022-08-10T00:33:26.897Z,100.00
2022-08-10T00:35:54.434Z,100.00
2022-08-10T00:38:22.101Z,100.00
2022-08-10T00:40:51.434Z,100.00
2022-08-10T00:43:23.495Z,100.00
2022-08-10T00:45:59.824Z,100.00
2022-08-10T00:48:31.617Z,100.00
2022-08-10T00:51:00.107Z,100.00
2022-08-10T00:53:28.029Z,100.00
2022-08-10T00:57:16.651Z,100.00
2022-08-10T00:58:47.027Z,100.00
2022-08-10T01:02:07.778Z,100.00
2022-08-10T01:04:58.606Z,100.00
2022-08-10T01:07:04.562Z,100.00
2022-08-10T01:09:41.685Z,100.00
2022-08-10T01:12:40.869Z,100.00
2022-08-10T01:15:05.274Z,100.00
2022-08-10T01:17:49.888Z,100.00
2022-08-10T01:20:31.192Z,100.00
2022-08-10T01:23:26.468Z,100.00
2022-08-10T01:26:30.501Z,100.00
2022-08-10T01:29:17.358Z,100.00
2022-08-10T01:31:52.184Z,100.00
2022-08-10T01:34:23.579Z,100.00
2022-08-10T01:36:56.728Z,100.00
2022-08-10T01:39:26.835Z,100.00
2022-08-10T01:41:58.093Z,100.00
2022-08-10T01:44:30.593Z,100.00
2022-08-10T01:47:22.466Z,100.00
2022-08-10T01:49:57.188Z,100.00
2022-08-10T01:52:28.406Z,100.00
2022-08-10T01:54:57.644Z,100.00
2022-08-10T01:57:28.625Z,100.00
2022-08-10T02:00:02.277Z,100.00
2022-08-10T02:02:34.626Z,100.00
2022-08-10T02:05:05.291Z,100.00
2022-08-10T02:07:37.752Z,100.00
2022-08-10T02:10:10.994Z,100.00
2022-08-10T02:12:40.654Z,100.00
2022-08-10T02:15:12.535Z,100.00
2022-08-10T02:17:59.385Z,100.00
2022-08-10T02:20:34.530Z,100.00
2022-08-10T02:23:06.307Z,100.00
2022-08-10T02:25:42.642Z,100.00
2022-08-10T02:28:30.046Z,100.00
2022-08-10T02:31:02.110Z,100.00
2022-08-10T02:33:37.381Z,100.00
2022-08-10T02:36:09.872Z,100.00
2022-08-10T02:38:58.597Z,100.00
2022-08-10T02:45:01.158Z,100.00
2022-08-10T02:45:18.407Z,100.00
2022-08-10T02:47:21.623Z,100.00
2022-08-10T02:49:54.949Z,100.00
2022-08-10T02:52:30.595Z,100.00
2022-08-10T02:55:18.345Z,100.00
2022-08-10T02:58:15.255Z,100.00
2022-08-10T03:00:45.582Z,100.00
2022-08-10T03:03:24.748Z,100.00
2022-08-10T03:06:00.153Z,100.00
2022-08-10T03:08:34.860Z,100.00
2022-08-10T03:11:05.894Z,100.00
2022-08-10T03:13:35.418Z,100.00
2022-08-10T03:16:04.705Z,100.00
2022-08-10T03:18:34.622Z,100.00
2022-08-10T03:21:06.015Z,100.00
2022-08-10T03:23:39.283Z,100.00
2022-08-10T03:26:08.860Z,100.00
2022-08-10T03:28:37.575Z,100.00
2022-08-10T03:31:05.538Z,100.00
2022-08-10T03:33:35.041Z,100.00
2022-08-10T03:36:41.229Z,100.00
2022-08-10T03:38:54.137Z,100.00
2022-08-10T03:41:29.729Z,100.00
2022-08-10T03:44:05.015Z,100.00
2022-08-10T03:46:36.091Z,100.00
2022-08-10T03:49:05.467Z,100.00
2022-08-10T03:51:36.016Z,100.00
2022-08-10T03:54:07.395Z,100.00
2022-08-10T03:56:37.889Z,100.00
2022-08-10T03:59:09.033Z,100.00
2022-08-10T04:02:44.857Z,100.00
2022-08-10T04:04:25.627Z,100.00
2022-08-10T04:06:57.026Z,100.00
2022-08-10T04:09:42.905Z,100.00
2022-08-10T04:12:14.805Z,100.00
2022-08-10T04:14:49.574Z,100.00
2022-08-10T04:18:04.194Z,100.00
2022-08-10T04:20:11.663Z,100.00
2022-08-10T04:22:42.507Z,100.00
2022-08-10T04:25:13.637Z,100.00
2022-08-10T04:27:41.453Z,100.00
2022-08-10T04:30:10.692Z,100.00
2022-08-10T04:32:39.186Z,100.00
2022-08-10T04:35:10.685Z,100.00
2022-08-10T04:37:46.858Z,100.00
2022-08-10T04:40:28.279Z,100.00
2022-08-10T04:43:02.345Z,100.00
2022-08-10T04:45:48.932Z,100.00
2022-08-10T04:48:43.428Z,100.00
2022-08-10T04:51:11.098Z,100.00
2022-08-10T04:54:04.864Z,100.00
2022-08-10T04:56:36.587Z,100.00
2022-08-10T04:59:06.325Z,100.00
2022-08-10T05:02:09.958Z,100.00
2022-08-10T05:04:38.457Z,100.00
2022-08-10T05:07:16.417Z,100.00
2022-08-10T05:10:01.227Z,100.00
2022-08-10T05:12:31.499Z,100.00
2022-08-10T05:14:59.543Z,100.00
2022-08-10T05:17:27.202Z,100.00
2022-08-10T05:20:02.214Z,100.00
2022-08-10T05:22:33.051Z,100.00
2022-08-10T05:25:01.950Z,100.00
2022-08-10T05:27:29.754Z,100.00
2022-08-10T05:30:01.324Z,100.00
2022-08-10T05:32:30.892Z,100.00
2022-08-10T05:34:58.896Z,100.00
2022-08-10T05:38:08.860Z,100.00
2022-08-10T05:40:16.060Z,100.00
2022-08-10T05:42:43.742Z,100.00
2022-08-10T05:45:20.921Z,100.00
2022-08-10T05:48:56.966Z,100.00
2022-08-10T05:50:37.193Z,100.00
2022-08-10T05:53:59.903Z,100.00
2022-08-10T05:55:55.607Z,100.00
2022-08-10T05:58:23.676Z,100.00
2022-08-10T06:00:54.624Z,100.00
2022-08-10T06:03:28.065Z,100.00
2022-08-10T06:05:57.978Z,100.00
2022-08-10T06:08:32.327Z,100.00
2022-08-10T06:12:26.612Z,100.00
2022-08-10T06:14:16.010Z,100.00
2022-08-10T06:16:46.585Z,100.00
2022-08-10T06:19:14.867Z,100.00
2022-08-10T06:22:00.690Z,100.00
2022-08-10T06:24:31.201Z,100.00
2022-08-10T06:27:02.031Z,100.00
2022-08-10T06:29:32.648Z,100.00
2022-08-10T06:32:02.342Z,100.00
2022-08-10T06:34:34.393Z,100.00
2022-08-10T06:37:05.340Z,100.00
2022-08-10T06:39:35.226Z,100.00
2022-08-10T06:42:15.892Z,100.00
2022-08-10T06:44:58.893Z,100.00
2022-08-10T06:47:31.385Z,100.00
2022-08-10T06:50:09.253Z,100.00
2022-08-10T06:52:38.689Z,100.00
2022-08-10T06:55:11.228Z,100.00
2022-08-10T06:57:41.479Z,100.00
2022-08-10T07:00:11.088Z,100.00
2022-08-10T07:02:47.767Z,100.00
2022-08-10T07:05:20.193Z,100.00
2022-08-10T07:07:49.450Z,100.00
2022-08-10T07:10:20.697Z,100.00
2022-08-10T07:12:52.420Z,100.00
2022-08-10T07:15:21.817Z,100.00
2022-08-10T07:17:52.137Z,100.00
2022-08-10T07:20:21.631Z,100.00
2022-08-10T07:23:53.842Z,100.00
2022-08-10T07:25:43.345Z,100.00
2022-08-10T07:28:14.109Z,100.00
2022-08-10T07:30:43.465Z,100.00
2022-08-10T07:33:15.602Z,100.00
2022-08-10T07:35:44.281Z,100.00
2022-08-10T07:38:17.221Z,100.00
2022-08-10T07:40:46.873Z,100.00
2022-08-10T07:43:20.883Z,100.00
2022-08-10T07:45:49.650Z,100.00
2022-08-10T07:48:23.845Z,100.00
2022-08-10T07:50:55.303Z,100.00
2022-08-10T07:53:27.851Z,100.00
2022-08-10T07:56:03.554Z,100.00
2022-08-10T07:58:52.437Z,100.00
2022-08-10T08:01:24.163Z,100.00
2022-08-10T08:04:10.682Z,100.00
2022-08-10T08:06:41.373Z,100.00
2022-08-10T08:09:09.621Z,100.00
2022-08-10T08:11:38.998Z,100.00
2022-08-10T08:14:11.223Z,100.00
2022-08-10T08:16:43.581Z,100.00
2022-08-10T08:19:32.821Z,100.00
2022-08-10T08:24:11.139Z,100.00
2022-08-10T08:24:52.095Z,100.00
2022-08-10T08:27:20.934Z,100.00
2022-08-10T08:29:51.679Z,100.00
2022-08-10T08:32:22.489Z,100.00
2022-08-10T08:34:54.747Z,100.00
2022-08-10T08:38:33.127Z,100.00
2022-08-10T08:40:17.721Z,100.00
2022-08-10T08:43:24.729Z,100.00
2022-08-10T08:46:21.378Z,100.00
2022-08-10T08:49:10.640Z,100.00
2022-08-10T08:52:09.443Z,100.00
2022-08-10T08:54:46.915Z,100.00
2022-08-10T08:57:49.560Z,100.00
2022-08-10T09:00:20.902Z,100.00
2022-08-10T09:03:11.885Z,100.00
2022-08-10T09:05:58.607Z,100.00
2022-08-10T09:08:58.673Z,100.00
2022-08-10T09:11:39.708Z,100.00
2022-08-10T09:14:12.429Z,100.00
2022-08-10T09:16:48.898Z,100.00
2022-08-10T09:19:36.672Z,100.00
2022-08-10T09:22:18.913Z,100.00
2022-08-10T09:24:52.500Z,100.00
2022-08-10T09:27:23.047Z,100.00
2022-08-10T09:29:55.953Z,100.00
2022-08-10T09:36:16.445Z,100.00
2022-08-10T09:36:28.988Z,100.00
2022-08-10T09:38:34.884Z,100.00
2022-08-10T09:41:17.383Z,100.00
2022-08-10T09:43:51.521Z,100.00
2022-08-10T09:46:33.454Z,100.00
2022-08-10T09:49:06.720Z,100.00
2022-08-10T09:51:47.591Z,100.00
2022-08-10T09:54:28.000Z,100.00
2022-08-10T09:57:43.317Z,100.00
2022-08-10T10:00:06.283Z,100.00
2022-08-10T10:02:43.393Z,100.00
2022-08-10T10:05:25.260Z,100.00
2022-08-10T10:08:01.815Z,100.00
2022-08-10T10:10:37.073Z,100.00
2022-08-10T10:14:02.112Z,100.00
2022-08-10T10:16:27.068Z,100.00
2022-08-10T10:19:05.926Z,100.00
2022-08-10T10:21:54.409Z,100.00
2022-08-10T10:24:34.050Z,100.00
2022-08-10T10:27:16.539Z,100.00
2022-08-10T10:29:58.393Z,100.00
2022-08-10T10:32:37.244Z,100.00
2022-08-10T10:35:15.064Z,100.00
2022-08-10T10:38:01.275Z,100.00
2022-08-10T10:40:40.319Z,100.00
2022-08-10T10:43:17.209Z,100.00
2022-08-10T10:45:54.758Z,100.00
2022-08-10T10:48:29.625Z,100.00
2022-08-10T10:51:08.440Z,100.00
2022-08-10T10:53:47.669Z,100.00
2022-08-10T10:56:29.468Z,100.00
2022-08-10T10:59:15.996Z,97.86
2022-08-10T11:02:08.164Z,94.39
2022-08-10T11:04:44.758Z,90.13
2022-08-10T11:07:23.629Z,90.73
2022-08-10T11:10:04.593Z,88.46
2022-08-10T11:14:24.454Z,87.46
2022-08-10T11:16:05.481Z,85.44
2022-08-10T11:18:52.060Z,85.91
2022-08-10T11:21:30.020Z,86.26
2022-08-10T11:24:46.751Z,87.52
2022-08-10T11:26:57.744Z,85.72
2022-08-10T11:29:35.800Z,85.46
2022-08-10T11:32:07.921Z,82.51
2022-08-10T11:35:11.257Z,83.56
2022-08-10T11:38:31.303Z,89.60
2022-08-10T11:40:43.507Z,85.10
2022-08-10T11:43:21.185Z,87.54
2022-08-10T11:45:55.890Z,85.76
2022-08-10T11:48:53.210Z,82.51
2022-08-10T11:51:26.381Z,79.24
2022-08-10T11:54:00.563Z,80.60
2022-08-10T11:56:34.613Z,77.20
2022-08-10T11:59:20.153Z,78.15
2022-08-10T12:01:53.449Z,80.22
2022-08-10T12:04:23.905Z,79.94
2022-08-10T12:06:55.791Z,77.69
2022-08-10T12:10:06.868Z,80.71
2022-08-10T12:12:15.601Z,83.49
2022-08-10T12:14:49.785Z,80.55
2022-08-10T12:17:26.260Z,77.80
2022-08-10T12:20:04.066Z,76.98
2022-08-10T12:22:39.163Z,76.06
2022-08-10T12:25:11.339Z,74.19
2022-08-10T12:28:06.553Z,69.33
2022-08-10T12:30:40.192Z,71.05
2022-08-10T12:33:19.827Z,72.97
2022-08-10T12:36:16.824Z,73.45
2022-08-10T12:38:50.309Z,72.96
2022-08-10T12:41:45.053Z,72.06
2022-08-10T12:44:15.770Z,71.72
2022-08-10T12:46:55.876Z,69.02
2022-08-10T12:49:31.330Z,69.03
2022-08-10T12:52:04.679Z,69.71
2022-08-10T12:54:37.412Z,67.52
2022-08-10T12:57:10.164Z,68.82
2022-08-10T12:59:43.802Z,67.65
2022-08-10T13:02:15.333Z,68.32
2022-08-10T13:04:48.832Z,67.87
2022-08-10T13:08:24.747Z,64.63
2022-08-10T13:10:15.959Z,63.23
2022-08-10T13:12:46.835Z,64.05
2022-08-10T13:15:45.516Z,63.76
2022-08-10T13:18:17.846Z,63.62
2022-08-10T13:20:51.927Z,62.56
2022-08-10T13:23:23.743Z,62.92
2022-08-10T13:25:53.793Z,64.31
2022-08-10T13:28:35.946Z,62.36
2022-08-10T13:31:16.557Z,62.17
2022-08-10T13:34:40.261Z,61.96
2022-08-10T13:36:40.313Z,60.51
2022-08-10T13:39:09.722Z,60.25
2022-08-10T13:41:41.574Z,60.40
2022-08-10T13:44:13.896Z,58.70
2022-08-10T13:46:43.560Z,61.13
2022-08-10T13:49:15.069Z,59.73
2022-08-10T13:51:57.245Z,59.94
2022-08-10T13:54:29.074Z,60.89
2022-08-10T13:56:57.807Z,62.37
2022-08-10T14:00:35.374Z,61.22
2022-08-10T14:02:25.018Z,59.03
2022-08-10T14:04:55.684Z,59.33
2022-08-10T14:07:29.508Z,59.06
2022-08-10T14:10:06.945Z,58.16
2022-08-10T14:12:38.059Z,57.95
2022-08-10T14:15:09.516Z,57.35
2022-08-10T14:17:44.596Z,55.87
2022-08-10T14:20:19.341Z,55.14
2022-08-10T14:22:51.168Z,56.67
2022-08-10T14:25:20.341Z,58.36
2022-08-10T14:28:02.820Z,56.83
2022-08-10T14:30:33.433Z,55.75
2022-08-10T14:33:04.673Z,55.88
2022-08-10T14:36:19.682Z,55.93
2022-08-10T14:38:31.550Z,56.69
2022-08-10T14:41:02.369Z,55.47
2022-08-10T14:43:35.632Z,53.90
2022-08-10T14:46:08.874Z,53.46
2022-08-10T14:48:41.646Z,52.86
2022-08-10T14:51:15.825Z,54.51
2022-08-10T14:53:53.170Z,54.37
2022-08-10T14:56:28.433Z,55.83
2022-08-10T14:59:07.677Z,56.28
2022-08-10T15:02:37.772Z,56.49
2022-08-10T15:04:29.278Z,56.84
2022-08-10T15:07:01.326Z,56.28
2022-08-10T15:10:01.462Z,56.42
2022-08-10T15:12:33.031Z,57.89
2022-08-10T15:15:02.437Z,57.69
2022-08-10T15:17:36.311Z,56.52
2022-08-10T15:20:13.407Z,58.84
2022-08-10T15:22:50.321Z,59.74
2022-08-10T15:25:24.187Z,60.34
2022-08-10T15:27:57.391Z,59.15
2022-08-10T15:30:31.575Z,59.47
2022-08-10T15:33:21.303Z,58.95
2022-08-10T15:36:28.037Z,59.06
2022-08-10T15:39:01.931Z,57.84
2022-08-10T15:41:58.660Z,57.91
2022-08-10T15:44:41.162Z,58.82
2022-08-10T15:47:15.121Z,59.82
2022-08-10T15:49:49.246Z,60.07
2022-08-10T15:52:39.284Z,60.08
2022-08-10T15:55:43.647Z,58.75
2022-08-10T15:58:11.847Z,58.43
2022-08-10T16:00:46.854Z,58.02
2022-08-10T16:03:18.276Z,57.64
2022-08-10T16:06:01.501Z,57.94
2022-08-10T16:08:56.075Z,56.42
2022-08-10T16:11:37.962Z,57.15
2022-08-10T16:14:20.032Z,57.09
2022-08-10T16:16:51.475Z,57.45
2022-08-10T16:19:25.013Z,59.22
2022-08-10T16:21:59.073Z,59.69
2022-08-10T16:24:31.117Z,58.41
2022-08-10T16:27:01.715Z,57.00
2022-08-10T16:29:33.224Z,57.96
2022-08-10T16:32:22.450Z,58.62
2022-08-10T16:34:53.214Z,59.90
2022-08-10T16:37:22.565Z,58.72
2022-08-10T16:39:59.314Z,60.19
2022-08-10T16:42:32.381Z,61.72
2022-08-10T16:45:06.340Z,62.90
2022-08-10T16:47:37.229Z,63.72
2022-08-10T16:50:10.349Z,64.68
2022-08-10T16:52:42.323Z,65.98
2022-08-10T16:55:23.888Z,64.21
2022-08-10T16:58:05.911Z,63.49
2022-08-10T17:00:37.150Z,63.41
2022-08-10T17:03:22.896Z,62.73
2022-08-10T17:06:11.236Z,62.65
2022-08-10T17:08:48.748Z,64.02
2022-08-10T17:11:18.107Z,65.14
2022-08-10T17:13:46.573Z,64.15
2022-08-10T17:16:18.433Z,65.55
2022-08-10T17:18:47.967Z,65.41
2022-08-10T17:21:20.550Z,67.11
2022-08-10T17:23:52.117Z,71.32
2022-08-10T17:26:35.259Z,74.35
2022-08-10T17:29:53.558Z,78.30
2022-08-10T17:32:06.467Z,78.72
2022-08-10T17:34:39.401Z,78.62
2022-08-10T17:37:16.862Z,80.00
2022-08-10T17:39:50.947Z,80.17
2022-08-10T17:42:21.875Z,75.48
2022-08-10T17:44:52.013Z,73.57
2022-08-10T17:47:27.306Z,77.63
2022-08-10T17:49:57.362Z,77.80
2022-08-10T17:52:28.807Z,82.24
2022-08-10T17:55:00.634Z,84.22
2022-08-10T17:57:29.839Z,84.98
2022-08-10T18:00:03.054Z,84.18
2022-08-10T18:02:37.307Z,87.14
2022-08-10T18:05:09.133Z,90.89
2022-08-10T18:07:39.734Z,95.18
2022-08-10T18:10:12.269Z,100.00
2022-08-10T18:12:43.804Z,100.00
2022-08-10T18:15:15.753Z,100.00
2022-08-10T18:17:50.540Z,100.00
2022-08-10T18:20:28.191Z,100.00
2022-08-10T18:22:58.376Z,100.00
2022-08-10T18:25:45.221Z,100.00
2022-08-10T18:28:18.977Z,100.00
2022-08-10T18:30:50.377Z,100.00
2022-08-10T18:33:27.162Z,100.00
2022-08-10T18:35:56.433Z,100.00
2022-08-10T18:38:28.252Z,100.00
2022-08-10T18:41:00.424Z,100.00
2022-08-10T18:44:11.550Z,100.00
2022-08-10T18:46:31.077Z,100.00
2022-08-10T18:49:06.242Z,100.00
2022-08-10T18:51:46.773Z,100.00
2022-08-10T18:54:39.584Z,100.00
2022-08-10T18:57:13.889Z,100.00
2022-08-10T19:00:03.693Z,100.00
2022-08-10T19:02:49.624Z,100.00
2022-08-10T19:05:32.455Z,100.00
2022-08-10T19:08:31.142Z,100.00
2022-08-10T19:11:04.225Z,100.00
2022-08-10T19:13:37.831Z,100.00
2022-08-10T19:16:15.908Z,100.00
2022-08-10T19:18:58.895Z,100.00
2022-08-10T19:21:36.249Z,100.00
2022-08-10T19:24:10.666Z,100.00
2022-08-10T19:26:47.336Z,100.00
2022-08-10T19:30:09.252Z,100.00
2022-08-10T19:32:29.670Z,100.00
2022-08-10T19:35:08.634Z,100.00
2022-08-10T19:37:56.396Z,100.00
2022-08-10T19:40:46.243Z,100.00
2022-08-10T19:43:30.895Z,100.00
2022-08-10T19:46:15.521Z,100.00
2022-08-10T19:48:49.156Z,100.00
2022-08-10T19:51:21.188Z,100.00
2022-08-10T19:53:57.744Z,100.00
2022-08-10T19:56:35.292Z,100.00
2022-08-10T19:59:11.481Z,100.00
2022-08-10T20:01:54.953Z,100.00
2022-08-10T20:04:31.734Z,100.00
2022-08-10T20:07:10.568Z,100.00
2022-08-10T20:09:47.231Z,100.00
2022-08-10T20:12:24.232Z,100.00
2022-08-10T20:15:01.790Z,100.00
2022-08-10T20:17:51.676Z,100.00
2022-08-10T20:20:30.980Z,100.00
2022-08-10T20:23:09.701Z,100.00
2022-08-10T20:25:39.761Z,100.00
2022-08-10T20:28:18.303Z,100.00
2022-08-10T20:30:53.425Z,100.00
2022-08-10T20:33:28.356Z,100.00
2022-08-10T20:36:02.600Z,100.00
2022-08-10T20:38:34.850Z,100.00
2022-08-10T20:41:25.158Z,100.00
2022-08-10T20:44:03.997Z,100.00
2022-08-10T20:46:38.951Z,100.00
2022-08-10T20:49:20.828Z,100.00
2022-08-10T20:51:59.199Z,100.00
2022-08-10T20:54:32.705Z,100.00
2022-08-10T20:57:55.683Z,100.00
2022-08-10T21:00:12.790Z,100.00
2022-08-10T21:02:54.839Z,100.00
2022-08-10T21:05:31.253Z,100.00
2022-08-10T21:08:12.139Z,100.00
2022-08-10T21:10:53.217Z,100.00
2022-08-10T21:13:37.304Z,100.00
2022-08-10T21:16:21.530Z,100.00
2022-08-10T21:19:02.814Z,100.00
2022-08-10T21:24:40.068Z,100.00
2022-08-10T21:27:22.498Z,100.00
2022-08-10T21:30:09.021Z,100.00
2022-08-10T21:32:50.639Z,100.00
2022-08-10T21:35:38.347Z,100.00
2022-08-10T21:38:24.127Z,100.00
2022-08-10T21:41:18.257Z,100.00
2022-08-10T21:44:17.428Z,100.00
2022-08-10T21:47:27.172Z,100.00
2022-08-10T21:50:27.652Z,100.00
2022-08-10T21:53:20.611Z,100.00
2022-08-10T21:56:31.426Z,100.00
2022-08-10T21:59:22.265Z,100.00
2022-08-10T22:02:13.778Z,100.00
2022-08-10T22:04:59.324Z,100.00
2022-08-10T22:07:46.978Z,100.00
2022-08-10T22:10:37.282Z,100.00
2022-08-10T22:13:25.169Z,100.00
2022-08-10T22:16:13.651Z,100.00
2022-08-10T22:19:03.526Z,100.00
2022-08-10T22:22:04.518Z,100.00
2022-08-10T22:25:16.873Z,100.00
2022-08-10T22:28:07.324Z,100.00
2022-08-10T22:31:27.039Z,100.00
2022-08-10T22:34:38.652Z,100.00
2022-08-10T22:37:41.727Z,100.00
2022-08-10T22:40:34.155Z,100.00
2022-08-10T22:43:36.377Z,100.00
2022-08-10T22:46:25.570Z,100.00
2022-08-10T22:49:01.368Z,100.00
2022-08-10T22:51:39.241Z,100.00
2022-08-10T22:54:34.433Z,100.00
2022-08-10T22:57:21.198Z,100.00
2022-08-10T22:59:50.341Z,100.00
2022-08-10T23:02:29.420Z,100.00
2022-08-10T23:05:00.027Z,100.00
2022-08-10T23:07:33.114Z,100.00
2022-08-10T23:10:02.269Z,100.00
2022-08-10T23:12:36.700Z,100.00
2022-08-10T23:15:25.440Z,100.00
2022-08-10T23:18:14.271Z,100.00
2022-08-10T23:20:44.359Z,100.00
2022-08-10T23:23:24.043Z,100.00
2022-08-10T23:25:58.335Z,100.00
2022-08-10T23:28:58.388Z,100.00
2022-08-10T23:31:17.638Z,100.00
2022-08-10T23:34:06.757Z,100.00
2022-08-10T23:36:38.145Z,100.00
2022-08-10T23:39:27.276Z,100.00
2022-08-10T23:42:03.278Z,100.00
2022-08-10T23:44:38.198Z,100.00
2022-08-10T23:47:10.313Z,100.00
2022-08-10T23:49:40.089Z,100.00
2022-08-10T23:52:14.405Z,100.00
2022-08-10T23:54:48.455Z,100.00
2022-08-10T23:57:19.667Z,100.00
2022-08-10T23:59:53.934Z,100.00
